Aviation Digital Data Service (ADDS)

Output produced by METARs form (2042 UTC 17 June 2019)
found at http://www.aviationweather.gov/metar/data/
 
Forecast for: EIDW (DUBLIN AIRPORT , IE)
Text: TAF EIDW 171700Z 1718/1818 24007KT 9999 FEW020 SCT040
Forecast period: 1800 UTC 17 June 2019 to 1100 UTC 18 June 2019
Forecast type: FROM: standard forecast or significant change
Winds: from the WSW (240 degrees) at 8 MPH (7 knots; 3.6 m/s)
Visibility: 6 or more miles 10+ km)
Ceiling: at least 12,000 feet AGL
Clouds: few clouds at 2000 feet AGL
scattered clouds at 4000 feet AGL
Weather: no significant weather forecast for this period
Text: BECMG 1811/1813 14012KT
Forecast period: 1100 to 1800 UTC 18 June 2019
Forecast type: BECOMING: Conditions expected to become as follows by 1300 UTC 18 June 2019
Winds: from the SE (140 degrees) at 14 MPH (12 knots; 6.2 m/s)
Visibility: 6 or more miles 10+ km)
Ceiling: at least 12,000 feet AGL
Clouds: few clouds at 2000 feet AGL
scattered clouds at 4000 feet AGL
Weather: no significant weather forecast for this period